sensor_id;sensor_type;location;lat;lon;timestamp;P1;durP1;ratioP1;P2;durP2;ratioP2
23155;SDS011;11746;50.876;4.246;2022-10-17T00:00:28;8.98;;;5.22;;
23155;SDS011;11746;50.876;4.246;2022-10-17T00:02:55;6.25;;;4.80;;
23155;SDS011;11746;50.876;4.246;2022-10-17T00:05:21;11.98;;;4.95;;
23155;SDS011;11746;50.876;4.246;2022-10-17T00:07:47;7.32;;;4.93;;
23155;SDS011;11746;50.876;4.246;2022-10-17T00:10:13;5.78;;;4.25;;
23155;SDS011;11746;50.876;4.246;2022-10-17T00:12:39;7.63;;;4.57;;
23155;SDS011;11746;50.876;4.246;2022-10-17T00:15:05;7.57;;;4.50;;
23155;SDS011;11746;50.876;4.246;2022-10-17T00:17:32;7.70;;;4.65;;
23155;SDS011;11746;50.876;4.246;2022-10-17T00:19:59;8.38;;;4.70;;
23155;SDS011;11746;50.876;4.246;2022-10-17T00:22:26;7.70;;;4.85;;
23155;SDS011;11746;50.876;4.246;2022-10-17T00:24:52;10.35;;;4.82;;
23155;SDS011;11746;50.876;4.246;2022-10-17T00:27:18;6.07;;;4.75;;
23155;SDS011;11746;50.876;4.246;2022-10-17T00:29:50;9.65;;;4.45;;
23155;SDS011;11746;50.876;4.246;2022-10-17T00:32:17;7.18;;;4.53;;
23155;SDS011;11746;50.876;4.246;2022-10-17T00:34:43;7.00;;;4.38;;
23155;SDS011;11746;50.876;4.246;2022-10-17T00:37:09;6.30;;;4.60;;
23155;SDS011;11746;50.876;4.246;2022-10-17T00:39:36;6.50;;;4.63;;
23155;SDS011;11746;50.876;4.246;2022-10-17T00:42:02;9.90;;;4.97;;
23155;SDS011;11746;50.876;4.246;2022-10-17T00:46:58;5.45;;;4.25;;
23155;SDS011;11746;50.876;4.246;2022-10-17T00:52:00;7.20;;;4.45;;
23155;SDS011;11746;50.876;4.246;2022-10-17T00:54:30;6.57;;;4.43;;
23155;SDS011;11746;50.876;4.246;2022-10-17T00:57:03;7.28;;;4.25;;
23155;SDS011;11746;50.876;4.246;2022-10-17T00:59:29;7.35;;;4.47;;
23155;SDS011;11746;50.876;4.246;2022-10-17T01:02:04;8.48;;;4.63;;
23155;SDS011;11746;50.876;4.246;2022-10-17T01:04:32;5.90;;;4.60;;
23155;SDS011;11746;50.876;4.246;2022-10-17T01:06:57;7.00;;;4.70;;
23155;SDS011;11746;50.876;4.246;2022-10-17T01:09:24;9.88;;;5.03;;
23155;SDS011;11746;50.876;4.246;2022-10-17T01:14:38;9.30;;;5.25;;
23155;SDS011;11746;50.876;4.246;2022-10-17T01:28:13;6.72;;;4.53;;
23155;SDS011;11746;50.876;4.246;2022-10-17T01:35:46;6.47;;;4.80;;
23155;SDS011;11746;50.876;4.246;2022-10-17T01:38:25;8.10;;;4.85;;
23155;SDS011;11746;50.876;4.246;2022-10-17T01:41:25;6.60;;;5.00;;
23155;SDS011;11746;50.876;4.246;2022-10-17T01:47:06;7.95;;;5.28;;
23155;SDS011;11746;50.876;4.246;2022-10-17T01:49:39;9.70;;;4.95;;
23155;SDS011;11746;50.876;4.246;2022-10-17T01:52:09;9.10;;;4.40;;
23155;SDS011;11746;50.876;4.246;2022-10-17T01:54:44;7.18;;;4.97;;
23155;SDS011;11746;50.876;4.246;2022-10-17T01:57:28;5.32;;;4.53;;
23155;SDS011;11746;50.876;4.246;2022-10-17T01:59:55;8.68;;;5.05;;
23155;SDS011;11746;50.876;4.246;2022-10-17T02:02:24;8.07;;;4.90;;
23155;SDS011;11746;50.876;4.246;2022-10-17T02:04:51;7.35;;;4.68;;
23155;SDS011;11746;50.876;4.246;2022-10-17T02:07:18;8.30;;;5.32;;
23155;SDS011;11746;50.876;4.246;2022-10-17T02:09:43;7.18;;;4.78;;
23155;SDS011;11746;50.876;4.246;2022-10-17T02:23:26;6.88;;;4.88;;
23155;SDS011;11746;50.876;4.246;2022-10-17T02:31:25;6.80;;;5.07;;
23155;SDS011;11746;50.876;4.246;2022-10-17T02:34:00;5.88;;;4.82;;
23155;SDS011;11746;50.876;4.246;2022-10-17T02:36:33;11.90;;;4.68;;
23155;SDS011;11746;50.876;4.246;2022-10-17T02:39:03;11.63;;;5.50;;
23155;SDS011;11746;50.876;4.246;2022-10-17T02:41:30;9.50;;;4.45;;
23155;SDS011;11746;50.876;4.246;2022-10-17T02:43:58;6.35;;;4.30;;
23155;SDS011;11746;50.876;4.246;2022-10-17T02:46:26;6.18;;;4.55;;
23155;SDS011;11746;50.876;4.246;2022-10-17T02:48:55;9.07;;;4.80;;
23155;SDS011;11746;50.876;4.246;2022-10-17T02:54:18;6.95;;;4.25;;
23155;SDS011;11746;50.876;4.246;2022-10-17T02:56:58;10.07;;;4.68;;
23155;SDS011;11746;50.876;4.246;2022-10-17T02:59:29;6.90;;;4.28;;
23155;SDS011;11746;50.876;4.246;2022-10-17T03:02:01;6.15;;;4.18;;
23155;SDS011;11746;50.876;4.246;2022-10-17T03:04:28;7.38;;;4.70;;
23155;SDS011;11746;50.876;4.246;2022-10-17T03:06:55;11.10;;;4.50;;
23155;SDS011;11746;50.876;4.246;2022-10-17T03:09:21;5.50;;;4.25;;
23155;SDS011;11746;50.876;4.246;2022-10-17T03:11:47;6.88;;;4.10;;
23155;SDS011;11746;50.876;4.246;2022-10-17T03:14:12;8.93;;;4.50;;
23155;SDS011;11746;50.876;4.246;2022-10-17T03:16:38;5.05;;;4.10;;
23155;SDS011;11746;50.876;4.246;2022-10-17T03:19:04;5.90;;;4.57;;
23155;SDS011;11746;50.876;4.246;2022-10-17T03:21:30;7.43;;;5.05;;
23155;SDS011;11746;50.876;4.246;2022-10-17T03:23:56;6.57;;;4.40;;
23155;SDS011;11746;50.876;4.246;2022-10-17T03:26:22;8.50;;;4.47;;
23155;SDS011;11746;50.876;4.246;2022-10-17T03:28:48;11.35;;;4.85;;
23155;SDS011;11746;50.876;4.246;2022-10-17T03:31:16;6.60;;;4.40;;
23155;SDS011;11746;50.876;4.246;2022-10-17T03:33:42;9.98;;;4.80;;
23155;SDS011;11746;50.876;4.246;2022-10-17T03:36:09;8.88;;;4.55;;
23155;SDS011;11746;50.876;4.246;2022-10-17T03:38:37;5.63;;;4.47;;
23155;SDS011;11746;50.876;4.246;2022-10-17T03:41:04;11.23;;;4.55;;
23155;SDS011;11746;50.876;4.246;2022-10-17T03:43:30;7.40;;;4.50;;
23155;SDS011;11746;50.876;4.246;2022-10-17T03:45:56;5.07;;;4.45;;
23155;SDS011;11746;50.876;4.246;2022-10-17T03:48:23;8.00;;;4.20;;
23155;SDS011;11746;50.876;4.246;2022-10-17T03:50:49;6.53;;;4.45;;
23155;SDS011;11746;50.876;4.246;2022-10-17T03:53:15;6.68;;;4.40;;
23155;SDS011;11746;50.876;4.246;2022-10-17T03:55:41;11.93;;;4.70;;
23155;SDS011;11746;50.876;4.246;2022-10-17T03:58:07;6.45;;;4.32;;
23155;SDS011;11746;50.876;4.246;2022-10-17T04:00:35;5.88;;;4.57;;
23155;SDS011;11746;50.876;4.246;2022-10-17T04:03:02;7.30;;;4.13;;
23155;SDS011;11746;50.876;4.246;2022-10-17T04:05:29;9.18;;;4.80;;
23155;SDS011;11746;50.876;4.246;2022-10-17T04:07:55;10.90;;;4.50;;
23155;SDS011;11746;50.876;4.246;2022-10-17T04:10:20;6.97;;;4.35;;
23155;SDS011;11746;50.876;4.246;2022-10-17T04:12:46;8.25;;;4.43;;
23155;SDS011;11746;50.876;4.246;2022-10-17T04:15:12;8.38;;;4.22;;
23155;SDS011;11746;50.876;4.246;2022-10-17T04:17:38;7.47;;;4.40;;
23155;SDS011;11746;50.876;4.246;2022-10-17T04:20:04;5.75;;;4.28;;
23155;SDS011;11746;50.876;4.246;2022-10-17T04:22:32;7.60;;;3.90;;
23155;SDS011;11746;50.876;4.246;2022-10-17T04:24:58;7.07;;;4.20;;
23155;SDS011;11746;50.876;4.246;2022-10-17T04:27:24;6.10;;;4.30;;
23155;SDS011;11746;50.876;4.246;2022-10-17T04:29:50;9.02;;;4.22;;
23155;SDS011;11746;50.876;4.246;2022-10-17T04:32:15;7.45;;;4.63;;
23155;SDS011;11746;50.876;4.246;2022-10-17T04:34:42;7.72;;;4.00;;
23155;SDS011;11746;50.876;4.246;2022-10-17T04:37:08;8.75;;;4.43;;
23155;SDS011;11746;50.876;4.246;2022-10-17T04:39:34;6.22;;;4.35;;
23155;SDS011;11746;50.876;4.246;2022-10-17T04:42:00;6.65;;;4.18;;
23155;SDS011;11746;50.876;4.246;2022-10-17T04:44:27;7.22;;;4.03;;
23155;SDS011;11746;50.876;4.246;2022-10-17T04:46:54;7.45;;;3.90;;
23155;SDS011;11746;50.876;4.246;2022-10-17T04:49:20;6.85;;;4.32;;
23155;SDS011;11746;50.876;4.246;2022-10-17T04:51:46;8.60;;;4.32;;
23155;SDS011;11746;50.876;4.246;2022-10-17T04:54:14;8.32;;;4.55;;
23155;SDS011;11746;50.876;4.246;2022-10-17T04:56:39;7.95;;;4.80;;
23155;SDS011;11746;50.876;4.246;2022-10-17T04:59:05;8.30;;;4.40;;
23155;SDS011;11746;50.876;4.246;2022-10-17T05:01:32;10.68;;;4.40;;
23155;SDS011;11746;50.876;4.246;2022-10-17T05:03:58;7.43;;;3.95;;
23155;SDS011;11746;50.876;4.246;2022-10-17T05:06:25;6.00;;;4.40;;
23155;SDS011;11746;50.876;4.246;2022-10-17T05:08:54;9.35;;;4.78;;
23155;SDS011;11746;50.876;4.246;2022-10-17T05:11:23;6.43;;;4.38;;
23155;SDS011;11746;50.876;4.246;2022-10-17T05:14:00;4.50;;;4.10;;
23155;SDS011;11746;50.876;4.246;2022-10-17T05:16:27;5.75;;;4.22;;
23155;SDS011;11746;50.876;4.246;2022-10-17T05:18:56;8.55;;;4.45;;
23155;SDS011;11746;50.876;4.246;2022-10-17T05:21:24;7.20;;;3.85;;
23155;SDS011;11746;50.876;4.246;2022-10-17T05:23:51;5.88;;;4.25;;
23155;SDS011;11746;50.876;4.246;2022-10-17T05:26:18;8.60;;;4.22;;
23155;SDS011;11746;50.876;4.246;2022-10-17T05:28:46;7.38;;;4.05;;
23155;SDS011;11746;50.876;4.246;2022-10-17T05:31:12;7.75;;;4.47;;
23155;SDS011;11746;50.876;4.246;2022-10-17T05:33:38;6.28;;;4.20;;
23155;SDS011;11746;50.876;4.246;2022-10-17T05:36:05;6.20;;;4.40;;
23155;SDS011;11746;50.876;4.246;2022-10-17T05:38:33;7.82;;;4.40;;
23155;SDS011;11746;50.876;4.246;2022-10-17T05:41:00;6.90;;;4.70;;
23155;SDS011;11746;50.876;4.246;2022-10-17T05:43:29;8.65;;;4.50;;
23155;SDS011;11746;50.876;4.246;2022-10-17T05:45:56;7.15;;;4.10;;
23155;SDS011;11746;50.876;4.246;2022-10-17T05:48:22;8.18;;;4.57;;
23155;SDS011;11746;50.876;4.246;2022-10-17T05:50:49;12.65;;;4.65;;
23155;SDS011;11746;50.876;4.246;2022-10-17T05:53:23;7.97;;;3.97;;
23155;SDS011;11746;50.876;4.246;2022-10-17T05:56:00;6.65;;;4.35;;
23155;SDS011;11746;50.876;4.246;2022-10-17T05:58:28;6.63;;;4.13;;
23155;SDS011;11746;50.876;4.246;2022-10-17T06:00:58;5.72;;;3.83;;
23155;SDS011;11746;50.876;4.246;2022-10-17T06:03:26;8.18;;;3.75;;
23155;SDS011;11746;50.876;4.246;2022-10-17T06:05:53;9.82;;;4.07;;
23155;SDS011;11746;50.876;4.246;2022-10-17T06:08:20;5.80;;;3.80;;
23155;SDS011;11746;50.876;4.246;2022-10-17T06:10:47;10.30;;;4.20;;
23155;SDS011;11746;50.876;4.246;2022-10-17T06:13:14;7.38;;;3.60;;
23155;SDS011;11746;50.876;4.246;2022-10-17T06:15:40;7.90;;;3.70;;
23155;SDS011;11746;50.876;4.246;2022-10-17T06:18:06;10.30;;;4.20;;
23155;SDS011;11746;50.876;4.246;2022-10-17T06:20:32;9.75;;;4.10;;
23155;SDS011;11746;50.876;4.246;2022-10-17T06:22:58;4.93;;;3.72;;
23155;SDS011;11746;50.876;4.246;2022-10-17T06:25:25;6.22;;;3.72;;
23155;SDS011;11746;50.876;4.246;2022-10-17T06:27:51;8.85;;;3.97;;
23155;SDS011;11746;50.876;4.246;2022-10-17T06:30:17;4.82;;;3.58;;
23155;SDS011;11746;50.876;4.246;2022-10-17T06:32:43;5.18;;;4.28;;
23155;SDS011;11746;50.876;4.246;2022-10-17T06:35:08;7.95;;;4.00;;
23155;SDS011;11746;50.876;4.246;2022-10-17T06:37:34;6.22;;;3.80;;
23155;SDS011;11746;50.876;4.246;2022-10-17T06:40:01;6.03;;;4.10;;
23155;SDS011;11746;50.876;4.246;2022-10-17T06:42:27;9.88;;;4.30;;
23155;SDS011;11746;50.876;4.246;2022-10-17T06:44:53;7.50;;;4.40;;
23155;SDS011;11746;50.876;4.246;2022-10-17T06:47:19;8.27;;;4.40;;
23155;SDS011;11746;50.876;4.246;2022-10-17T06:49:45;7.47;;;4.55;;
23155;SDS011;11746;50.876;4.246;2022-10-17T06:52:12;6.00;;;4.05;;
23155;SDS011;11746;50.876;4.246;2022-10-17T06:54:38;5.95;;;4.05;;
23155;SDS011;11746;50.876;4.246;2022-10-17T06:57:04;10.02;;;4.47;;
23155;SDS011;11746;50.876;4.246;2022-10-17T06:59:30;6.75;;;3.63;;
23155;SDS011;11746;50.876;4.246;2022-10-17T07:01:57;7.38;;;4.03;;
23155;SDS011;11746;50.876;4.246;2022-10-17T07:04:25;5.22;;;3.15;;
23155;SDS011;11746;50.876;4.246;2022-10-17T07:06:51;6.28;;;3.60;;
23155;SDS011;11746;50.876;4.246;2022-10-17T07:09:17;6.78;;;3.95;;
23155;SDS011;11746;50.876;4.246;2022-10-17T07:11:43;6.70;;;3.72;;
23155;SDS011;11746;50.876;4.246;2022-10-17T07:14:09;6.25;;;3.50;;
23155;SDS011;11746;50.876;4.246;2022-10-17T07:16:35;6.22;;;3.47;;
23155;SDS011;11746;50.876;4.246;2022-10-17T07:19:01;6.13;;;3.25;;
23155;SDS011;11746;50.876;4.246;2022-10-17T07:21:28;7.97;;;3.42;;
23155;SDS011;11746;50.876;4.246;2022-10-17T07:23:54;7.15;;;3.42;;
23155;SDS011;11746;50.876;4.246;2022-10-17T07:26:20;6.45;;;3.95;;
23155;SDS011;11746;50.876;4.246;2022-10-17T07:28:46;7.80;;;4.18;;
23155;SDS011;11746;50.876;4.246;2022-10-17T07:31:17;6.60;;;3.80;;
23155;SDS011;11746;50.876;4.246;2022-10-17T07:33:44;9.57;;;3.80;;
23155;SDS011;11746;50.876;4.246;2022-10-17T07:36:11;8.45;;;3.20;;
23155;SDS011;11746;50.876;4.246;2022-10-17T07:38:38;6.63;;;3.58;;
23155;SDS011;11746;50.876;4.246;2022-10-17T07:41:06;9.27;;;3.95;;
23155;SDS011;11746;50.876;4.246;2022-10-17T07:43:34;5.32;;;3.28;;
23155;SDS011;11746;50.876;4.246;2022-10-17T07:46:01;8.00;;;3.00;;
23155;SDS011;11746;50.876;4.246;2022-10-17T07:48:28;10.40;;;3.47;;
23155;SDS011;11746;50.876;4.246;2022-10-17T07:50:54;4.80;;;2.80;;
23155;SDS011;11746;50.876;4.246;2022-10-17T07:53:21;4.45;;;2.92;;
23155;SDS011;11746;50.876;4.246;2022-10-17T07:55:48;6.20;;;2.70;;
23155;SDS011;11746;50.876;4.246;2022-10-17T07:58:15;9.02;;;2.95;;
23155;SDS011;11746;50.876;4.246;2022-10-17T08:00:42;6.88;;;2.45;;
23155;SDS011;11746;50.876;4.246;2022-10-17T08:03:08;4.47;;;3.22;;
23155;SDS011;11746;50.876;4.246;2022-10-17T08:05:35;5.00;;;3.15;;
23155;SDS011;11746;50.876;4.246;2022-10-17T08:08:01;4.50;;;2.80;;
23155;SDS011;11746;50.876;4.246;2022-10-17T08:10:27;4.93;;;2.58;;
23155;SDS011;11746;50.876;4.246;2022-10-17T08:12:54;4.25;;;2.70;;
23155;SDS011;11746;50.876;4.246;2022-10-17T08:15:21;4.20;;;2.50;;
23155;SDS011;11746;50.876;4.246;2022-10-17T08:17:50;4.57;;;2.85;;
23155;SDS011;11746;50.876;4.246;2022-10-17T08:20:16;5.63;;;2.60;;
23155;SDS011;11746;50.876;4.246;2022-10-17T08:22:42;5.38;;;2.90;;
23155;SDS011;11746;50.876;4.246;2022-10-17T08:25:16;4.67;;;3.10;;
23155;SDS011;11746;50.876;4.246;2022-10-17T08:27:42;7.25;;;3.97;;
23155;SDS011;11746;50.876;4.246;2022-10-17T08:30:08;5.60;;;4.10;;
23155;SDS011;11746;50.876;4.246;2022-10-17T08:32:34;7.03;;;4.93;;
23155;SDS011;11746;50.876;4.246;2022-10-17T08:35:00;7.55;;;4.63;;
23155;SDS011;11746;50.876;4.246;2022-10-17T08:37:26;7.55;;;4.20;;
23155;SDS011;11746;50.876;4.246;2022-10-17T08:39:54;8.75;;;4.82;;
23155;SDS011;11746;50.876;4.246;2022-10-17T08:45:19;10.27;;;4.47;;
23155;SDS011;11746;50.876;4.246;2022-10-17T08:47:50;8.30;;;5.40;;
23155;SDS011;11746;50.876;4.246;2022-10-17T08:50:39;9.90;;;5.70;;
23155;SDS011;11746;50.876;4.246;2022-10-17T08:53:37;8.80;;;5.47;;
23155;SDS011;11746;50.876;4.246;2022-10-17T08:56:37;7.50;;;5.30;;
23155;SDS011;11746;50.876;4.246;2022-10-17T08:59:12;8.30;;;5.68;;
23155;SDS011;11746;50.876;4.246;2022-10-17T09:01:48;11.82;;;5.90;;
23155;SDS011;11746;50.876;4.246;2022-10-17T09:12:29;10.32;;;5.78;;
23155;SDS011;11746;50.876;4.246;2022-10-17T09:15:19;9.55;;;5.90;;
23155;SDS011;11746;50.876;4.246;2022-10-17T09:18:28;12.00;;;5.75;;
23155;SDS011;11746;50.876;4.246;2022-10-17T09:21:12;6.95;;;5.40;;
23155;SDS011;11746;50.876;4.246;2022-10-17T09:23:45;7.88;;;6.05;;
23155;SDS011;11746;50.876;4.246;2022-10-17T09:26:23;8.48;;;5.85;;
23155;SDS011;11746;50.876;4.246;2022-10-17T09:28:51;10.85;;;6.50;;
23155;SDS011;11746;50.876;4.246;2022-10-17T09:31:23;8.90;;;6.78;;
23155;SDS011;11746;50.876;4.246;2022-10-17T09:33:54;11.73;;;6.85;;
23155;SDS011;11746;50.876;4.246;2022-10-17T09:36:27;12.35;;;6.78;;
23155;SDS011;11746;50.876;4.246;2022-10-17T09:41:49;10.50;;;6.05;;
23155;SDS011;11746;50.876;4.246;2022-10-17T09:44:22;11.38;;;6.18;;
23155;SDS011;11746;50.876;4.246;2022-10-17T09:49:47;8.75;;;6.50;;
23155;SDS011;11746;50.876;4.246;2022-10-17T09:52:15;8.05;;;5.95;;
23155;SDS011;11746;50.876;4.246;2022-10-17T09:54:46;10.00;;;6.18;;
23155;SDS011;11746;50.876;4.246;2022-10-17T09:57:15;11.05;;;5.82;;
23155;SDS011;11746;50.876;4.246;2022-10-17T09:59:47;9.68;;;5.95;;
23155;SDS011;11746;50.876;4.246;2022-10-17T10:02:21;7.88;;;6.03;;
23155;SDS011;11746;50.876;4.246;2022-10-17T10:04:52;9.68;;;5.88;;
23155;SDS011;11746;50.876;4.246;2022-10-17T10:07:19;7.63;;;5.55;;
23155;SDS011;11746;50.876;4.246;2022-10-17T10:09:46;8.90;;;5.82;;
23155;SDS011;11746;50.876;4.246;2022-10-17T10:12:36;10.95;;;5.68;;
23155;SDS011;11746;50.876;4.246;2022-10-17T10:15:10;9.18;;;5.95;;
23155;SDS011;11746;50.876;4.246;2022-10-17T10:17:56;9.18;;;5.72;;
23155;SDS011;11746;50.876;4.246;2022-10-17T10:20:30;9.70;;;5.82;;
23155;SDS011;11746;50.876;4.246;2022-10-17T10:23:06;8.27;;;5.43;;
23155;SDS011;11746;50.876;4.246;2022-10-17T10:25:48;8.65;;;6.15;;
23155;SDS011;11746;50.876;4.246;2022-10-17T10:28:18;6.85;;;5.13;;
23155;SDS011;11746;50.876;4.246;2022-10-17T10:30:48;8.95;;;5.78;;
23155;SDS011;11746;50.876;4.246;2022-10-17T10:33:18;10.80;;;5.25;;
23155;SDS011;11746;50.876;4.246;2022-10-17T10:35:56;7.30;;;5.35;;
23155;SDS011;11746;50.876;4.246;2022-10-17T10:38:25;11.13;;;5.90;;
23155;SDS011;11746;50.876;4.246;2022-10-17T10:40:53;11.60;;;5.82;;
23155;SDS011;11746;50.876;4.246;2022-10-17T10:43:36;9.70;;;5.28;;
23155;SDS011;11746;50.876;4.246;2022-10-17T10:46:21;9.10;;;5.50;;
23155;SDS011;11746;50.876;4.246;2022-10-17T10:48:55;12.38;;;5.38;;
23155;SDS011;11746;50.876;4.246;2022-10-17T10:54:16;9.98;;;5.22;;
23155;SDS011;11746;50.876;4.246;2022-10-17T10:56:58;7.85;;;4.95;;
23155;SDS011;11746;50.876;4.246;2022-10-17T11:02:46;8.98;;;5.75;;
23155;SDS011;11746;50.876;4.246;2022-10-17T11:05:25;11.43;;;6.30;;
23155;SDS011;11746;50.876;4.246;2022-10-17T11:08:03;10.25;;;6.00;;
23155;SDS011;11746;50.876;4.246;2022-10-17T11:11:13;10.63;;;6.47;;
23155;SDS011;11746;50.876;4.246;2022-10-17T11:13:57;11.18;;;6.22;;
23155;SDS011;11746;50.876;4.246;2022-10-17T11:16:46;9.93;;;6.15;;
23155;SDS011;11746;50.876;4.246;2022-10-17T11:19:46;16.55;;;6.15;;
23155;SDS011;11746;50.876;4.246;2022-10-17T11:22:31;14.73;;;7.13;;
23155;SDS011;11746;50.876;4.246;2022-10-17T11:25:04;12.45;;;6.38;;
23155;SDS011;11746;50.876;4.246;2022-10-17T11:27:37;11.82;;;6.55;;
23155;SDS011;11746;50.876;4.246;2022-10-17T11:30:03;9.23;;;6.32;;
23155;SDS011;11746;50.876;4.246;2022-10-17T11:32:36;10.77;;;6.30;;
23155;SDS011;11746;50.876;4.246;2022-10-17T11:37:38;9.35;;;6.97;;
23155;SDS011;11746;50.876;4.246;2022-10-17T11:40:15;11.73;;;6.60;;
23155;SDS011;11746;50.876;4.246;2022-10-17T11:43:08;9.75;;;6.20;;
23155;SDS011;11746;50.876;4.246;2022-10-17T11:45:40;8.10;;;5.80;;
23155;SDS011;11746;50.876;4.246;2022-10-17T11:48:16;9.73;;;5.63;;
23155;SDS011;11746;50.876;4.246;2022-10-17T11:51:08;9.77;;;5.50;;
23155;SDS011;11746;50.876;4.246;2022-10-17T11:56:25;8.82;;;5.35;;
23155;SDS011;11746;50.876;4.246;2022-10-17T11:59:15;7.45;;;4.65;;
23155;SDS011;11746;50.876;4.246;2022-10-17T12:05:03;8.77;;;4.85;;
23155;SDS011;11746;50.876;4.246;2022-10-17T12:14:02;9.55;;;5.20;;
23155;SDS011;11746;50.876;4.246;2022-10-17T12:21:25;10.48;;;6.70;;
23155;SDS011;11746;50.876;4.246;2022-10-17T12:23:52;12.63;;;6.50;;
23155;SDS011;11746;50.876;4.246;2022-10-17T12:26:38;9.95;;;6.43;;
23155;SDS011;11746;50.876;4.246;2022-10-17T12:29:16;10.90;;;7.10;;
23155;SDS011;11746;50.876;4.246;2022-10-17T12:31:52;12.45;;;7.43;;
23155;SDS011;11746;50.876;4.246;2022-10-17T12:34:18;11.02;;;7.43;;
23155;SDS011;11746;50.876;4.246;2022-10-17T12:36:47;13.10;;;7.85;;
23155;SDS011;11746;50.876;4.246;2022-10-17T12:52:24;10.40;;;6.35;;
23155;SDS011;11746;50.876;4.246;2022-10-17T12:54:52;11.73;;;6.95;;
23155;SDS011;11746;50.876;4.246;2022-10-17T12:57:39;11.80;;;6.85;;
23155;SDS011;11746;50.876;4.246;2022-10-17T13:03:13;11.32;;;5.70;;
23155;SDS011;11746;50.876;4.246;2022-10-17T13:05:46;8.68;;;5.72;;
23155;SDS011;11746;50.876;4.246;2022-10-17T13:08:17;7.90;;;5.65;;
23155;SDS011;11746;50.876;4.246;2022-10-17T13:10:50;7.32;;;5.25;;
23155;SDS011;11746;50.876;4.246;2022-10-17T13:13:38;8.95;;;5.55;;
23155;SDS011;11746;50.876;4.246;2022-10-17T13:16:32;6.10;;;4.35;;
23155;SDS011;11746;50.876;4.246;2022-10-17T13:19:10;9.70;;;4.63;;
23155;SDS011;11746;50.876;4.246;2022-10-17T13:21:48;7.22;;;4.47;;
23155;SDS011;11746;50.876;4.246;2022-10-17T13:24:32;7.60;;;3.97;;
23155;SDS011;11746;50.876;4.246;2022-10-17T13:27:00;8.23;;;4.07;;
23155;SDS011;11746;50.876;4.246;2022-10-17T13:29:28;5.90;;;4.10;;
23155;SDS011;11746;50.876;4.246;2022-10-17T13:31:59;5.55;;;3.58;;
23155;SDS011;11746;50.876;4.246;2022-10-17T13:34:28;6.38;;;3.33;;
23155;SDS011;11746;50.876;4.246;2022-10-17T13:36:59;4.90;;;3.05;;
23155;SDS011;11746;50.876;4.246;2022-10-17T13:39:32;5.15;;;3.10;;
23155;SDS011;11746;50.876;4.246;2022-10-17T13:42:04;5.40;;;2.95;;
23155;SDS011;11746;50.876;4.246;2022-10-17T13:44:32;7.60;;;3.15;;
23155;SDS011;11746;50.876;4.246;2022-10-17T13:47:00;6.07;;;3.30;;
23155;SDS011;11746;50.876;4.246;2022-10-17T13:51:55;9.77;;;3.30;;
23155;SDS011;11746;50.876;4.246;2022-10-17T13:54:32;4.45;;;2.80;;
23155;SDS011;11746;50.876;4.246;2022-10-17T13:57:16;7.60;;;3.30;;
23155;SDS011;11746;50.876;4.246;2022-10-17T14:02:16;5.45;;;3.00;;
23155;SDS011;11746;50.876;4.246;2022-10-17T14:04:46;5.57;;;2.90;;
23155;SDS011;11746;50.876;4.246;2022-10-17T14:07:33;5.97;;;2.78;;
23155;SDS011;11746;50.876;4.246;2022-10-17T14:10:00;4.97;;;2.72;;
23155;SDS011;11746;50.876;4.246;2022-10-17T14:12:30;5.18;;;2.90;;
23155;SDS011;11746;50.876;4.246;2022-10-17T14:14:57;5.07;;;2.17;;
23155;SDS011;11746;50.876;4.246;2022-10-17T14:17:28;7.03;;;2.80;;
23155;SDS011;11746;50.876;4.246;2022-10-17T14:19:55;4.22;;;2.50;;
23155;SDS011;11746;50.876;4.246;2022-10-17T14:22:27;4.55;;;2.70;;
23155;SDS011;11746;50.876;4.246;2022-10-17T14:24:55;8.73;;;4.63;;
23155;SDS011;11746;50.876;4.246;2022-10-17T14:27:25;5.47;;;2.95;;
23155;SDS011;11746;50.876;4.246;2022-10-17T14:29:55;5.43;;;2.72;;
23155;SDS011;11746;50.876;4.246;2022-10-17T14:32:31;3.90;;;2.63;;
23155;SDS011;11746;50.876;4.246;2022-10-17T14:34:59;9.43;;;2.67;;
23155;SDS011;11746;50.876;4.246;2022-10-17T14:37:30;3.65;;;2.22;;
23155;SDS011;11746;50.876;4.246;2022-10-17T14:40:14;4.95;;;2.60;;
23155;SDS011;11746;50.876;4.246;2022-10-17T14:42:42;4.10;;;2.67;;
23155;SDS011;11746;50.876;4.246;2022-10-17T14:47:53;7.60;;;2.60;;
23155;SDS011;11746;50.876;4.246;2022-10-17T14:50:25;4.13;;;2.22;;
23155;SDS011;11746;50.876;4.246;2022-10-17T14:53:02;3.95;;;2.70;;
23155;SDS011;11746;50.876;4.246;2022-10-17T14:57:57;6.47;;;2.90;;
23155;SDS011;11746;50.876;4.246;2022-10-17T15:00:24;8.35;;;2.85;;
23155;SDS011;11746;50.876;4.246;2022-10-17T15:02:52;5.13;;;2.67;;
23155;SDS011;11746;50.876;4.246;2022-10-17T15:05:19;6.70;;;2.63;;
23155;SDS011;11746;50.876;4.246;2022-10-17T15:07:47;8.57;;;2.90;;
23155;SDS011;11746;50.876;4.246;2022-10-17T15:10:27;7.43;;;2.65;;
23155;SDS011;11746;50.876;4.246;2022-10-17T15:13:00;8.52;;;3.08;;
23155;SDS011;11746;50.876;4.246;2022-10-17T15:15:27;3.13;;;2.22;;
23155;SDS011;11746;50.876;4.246;2022-10-17T15:17:54;5.22;;;2.83;;
23155;SDS011;11746;50.876;4.246;2022-10-17T15:20:20;5.47;;;2.80;;
23155;SDS011;11746;50.876;4.246;2022-10-17T15:22:50;6.82;;;2.95;;
23155;SDS011;11746;50.876;4.246;2022-10-17T15:25:17;4.90;;;2.67;;
23155;SDS011;11746;50.876;4.246;2022-10-17T15:27:43;6.53;;;4.05;;
23155;SDS011;11746;50.876;4.246;2022-10-17T15:32:47;9.40;;;4.30;;
23155;SDS011;11746;50.876;4.246;2022-10-17T15:35:17;9.43;;;4.00;;
23155;SDS011;11746;50.876;4.246;2022-10-17T15:37:43;9.85;;;4.38;;
23155;SDS011;11746;50.876;4.246;2022-10-17T15:40:17;8.73;;;4.05;;
23155;SDS011;11746;50.876;4.246;2022-10-17T15:42:53;8.55;;;4.03;;
23155;SDS011;11746;50.876;4.246;2022-10-17T15:45:20;7.60;;;3.50;;
23155;SDS011;11746;50.876;4.246;2022-10-17T15:47:51;6.97;;;3.30;;
23155;SDS011;11746;50.876;4.246;2022-10-17T15:50:20;6.47;;;3.10;;
23155;SDS011;11746;50.876;4.246;2022-10-17T15:52:46;6.95;;;4.60;;
23155;SDS011;11746;50.876;4.246;2022-10-17T15:55:15;5.78;;;3.10;;
23155;SDS011;11746;50.876;4.246;2022-10-17T15:57:42;6.40;;;3.13;;
23155;SDS011;11746;50.876;4.246;2022-10-17T16:00:18;7.50;;;3.22;;
23155;SDS011;11746;50.876;4.246;2022-10-17T16:02:47;5.97;;;3.60;;
23155;SDS011;11746;50.876;4.246;2022-10-17T16:07:48;7.50;;;3.55;;
23155;SDS011;11746;50.876;4.246;2022-10-17T16:10:15;5.80;;;2.90;;
23155;SDS011;11746;50.876;4.246;2022-10-17T16:12:41;5.55;;;3.20;;
23155;SDS011;11746;50.876;4.246;2022-10-17T16:15:12;5.88;;;3.20;;
23155;SDS011;11746;50.876;4.246;2022-10-17T16:17:43;6.13;;;3.05;;
23155;SDS011;11746;50.876;4.246;2022-10-17T16:20:12;4.05;;;2.80;;
23155;SDS011;11746;50.876;4.246;2022-10-17T16:22:40;8.35;;;3.50;;
23155;SDS011;11746;50.876;4.246;2022-10-17T16:25:15;9.25;;;4.40;;
23155;SDS011;11746;50.876;4.246;2022-10-17T16:27:43;6.65;;;4.05;;
23155;SDS011;11746;50.876;4.246;2022-10-17T16:30:11;6.28;;;4.35;;
23155;SDS011;11746;50.876;4.246;2022-10-17T16:32:37;8.75;;;4.70;;
23155;SDS011;11746;50.876;4.246;2022-10-17T16:35:05;7.75;;;5.60;;
23155;SDS011;11746;50.876;4.246;2022-10-17T16:37:32;10.27;;;4.20;;
23155;SDS011;11746;50.876;4.246;2022-10-17T16:39:59;5.60;;;3.63;;
23155;SDS011;11746;50.876;4.246;2022-10-17T16:42:26;5.97;;;3.28;;
23155;SDS011;11746;50.876;4.246;2022-10-17T16:44:52;4.88;;;3.38;;
23155;SDS011;11746;50.876;4.246;2022-10-17T16:47:18;11.55;;;8.82;;
23155;SDS011;11746;50.876;4.246;2022-10-17T16:49:45;6.45;;;4.53;;
23155;SDS011;11746;50.876;4.246;2022-10-17T16:52:11;7.55;;;3.85;;
23155;SDS011;11746;50.876;4.246;2022-10-17T16:54:36;12.23;;;9.02;;
23155;SDS011;11746;50.876;4.246;2022-10-17T16:57:03;11.30;;;8.95;;
23155;SDS011;11746;50.876;4.246;2022-10-17T16:59:32;13.82;;;11.07;;
23155;SDS011;11746;50.876;4.246;2022-10-17T17:01:59;9.30;;;7.18;;
23155;SDS011;11746;50.876;4.246;2022-10-17T17:04:25;11.13;;;7.43;;